Boonville, MO

12:54 AM CDT on July 27, 2016 (GMT -0500)
Viertel Memorial | | Change Station

Elev 715 ft 38.95 °N, 92.68 °W | Updated 19 minutes ago

Scattered Clouds
Scattered Clouds
75 °F
Feels Like 75 °F
N
0
Wind Variable Wind from North

Today
High -- | Low -- °F
--% Chance of Precip.
Yesterday
High -- | Low -- °F
Precip. -- in
Pressure 29.99 in
Visibility 10.0 miles
Clouds Scattered Clouds 4300 ft
Dew Point 72 °F
Humidity 93%
Rainfall 0.00 in
Snow Depth Not available.
6:07 AM 8:26 PM
Waning Gibbous, 47% visible
METAR KVER 270535Z AUTO 00000KT 10SM SCT043 24/23 A2999 RMK AO2 T02370225
Pressure 29.99 in
Visibility 10.0 miles
Clouds Scattered Clouds 4300 ft
Dew Point 72 °F
Humidity 93%
Rainfall 0.00 in
Snow Depth Not available.
6:07 AM 8:26 PM
Waning Gibbous, 47% visible
METAR KVER 270535Z AUTO 00000KT 10SM SCT043 24/23 A2999 RMK AO2 T02370225

10-Day Weather Forecast

Almanac

Astronomy

Jul. 27, 2016 Rise Set
Actual Time
Civil Twilight
Nautical Twilight
Astronomical Twilight
Moon
Length of Visible Light
Length of Day
Tomorrow will be .
, % of the Moon is Illuminated

Today's Extremes

State Highs State Lows

Community

WunderPhotos

Upload Photos

1,927,818 photos uploaded!

WunderBlog® & News

Nearby

Air Quality

  Air Quality AQ Index Pollutant
Not available.

Snow Depth

Station Depth Elevation

Earthquake Activity

City Distance Mag. Time & Date
Minimum magnitude displayed is 2.5.

Coastal Water Temperatures

Place Temperature

Stations

Nearby Weather Stations

Station Location Temp. Windchill Dew Point Humidity Wind Precip. Elev Updated Type
                   

Watches & Warnings

There are currently no watches in effect.